28OI weather

Mount Carmel East Hospital Heliport
Columbus, Ohio, United States

Public forecast

Using degrees Fahrenheit for public forecast. Weather courtesy of forecast.io.

METAR (pilot weather report)

Closest report is John Glenn Columbus International Airport, 2.5 nm (4.7 km) WNW. Retrieved 2019/05/22 08:51 UTC (2 hours ago):

KCMH 220851Z 11008KT 10SM BKN240 12/06 A3005 RMK AO2 SLP175 T01220061 55003

TAF (pilot weather forecast)

Closest forecast is John Glenn Columbus International Airport, 2.5 nm (4.7 km) WNW. Retrieved 2019/05/22 06:48 UTC (4 hours ago):

TAF KCMH 220545Z 2206/2306 11006KT P6SM BKN250 FM221300 14007KT P6SM SCT070 BKN120 FM221600 19007KT P6SM SCT045 BKN120 FM221800 19012G20KT P6SM SCT045 BKN120 FM222200 21011KT P6SM VCTS BKN050CB FM230100 18007KT P6SM SCT050 BKN100